Conti Salome — A8LL8 — position and weather

sailwx.info

Track history (hours):
 
Tides and Currents Weather Stations Pressure Air Temp Water Temp Dewpoint Dewpoint Depression Visibility Wind Speed Wind Dir Waves Ship Positions

Conti Salome

Last reported at 2017-Sep-21 07:34 UTC. Time now 2017-Sep-21 12:14 UTC.
Position N 34°09' W 119°12'.

Length 203 m; beam 28 m; draft 11 m.

Type: Cargo ship. MMSI: 636017730.

Date/timePositionNaut miles runAvg speedWind from/ knotsBaromVisibWave heightAir tempDewpointWater temp
2017-Sep-21 07:34N 34°09' W 119°12'0 0.0
2017-Sep-21 03:50N 34°09' W 119°12'0 0.0
2017-Sep-21 03:26N 34°09' W 119°12'0 0.0
2017-Sep-21 02:56N 34°09' W 119°12'0 0.0
2017-Sep-21 02:20N 34°09' W 119°12'0 0.0
2017-Sep-21 01:55N 34°09' W 119°12'0 0.0
2017-Sep-20 21:51N 34°09' W 119°12'0 0.0
2017-Sep-20 21:30N 34°09' W 119°12'0 0.0
2017-Sep-20 20:53N 34°09' W 119°12'0 0.0
2017-Sep-20 19:20N 34°09' W 119°12'0 0.0
2017-Sep-20 13:59N 34°09' W 119°12'2 4.0
2017-Sep-20 13:30N 34°07' W 119°14'1 2.0
2017-Sep-20 12:58N 34°07' W 119°15'3 6.0
2017-Sep-20 12:30N 34°04' W 119°15'5 8.6
2017-Sep-20 11:59N 33°59' W 119°13'715.4
2017-Sep-20 11:30N 33°53' W 119°08'815.0
2017-Sep-20 11:00N 33°48' W 119°03'714.6
2017-Sep-20 10:30N 33°42' W 118°57'714.9
2017-Sep-20 10:00N 33°36' W 118°52'714.9
2017-Sep-20 09:30N 33°30' W 118°46'815.1
2017-Sep-20 09:01N 33°24' W 118°41'814.9
2017-Sep-20 08:29N 33°18' W 118°35'815.0
2017-Sep-20 07:58N 33°12' W 118°30'715.1
2017-Sep-20 07:30N 33°07' W 118°23'815.0
2017-Sep-20 07:00N 33°02' W 118°17'715.0
2017-Sep-20 06:30N 32°57' W 118°10'714.9
2017-Sep-20 06:00N 32°52' W 118°04'714.9
2017-Sep-20 05:30N 32°47' W 117°57'714.8
2017-Sep-20 05:01N 32°42' W 117°50'815.4
2017-Sep-20 04:31N 32°38' W 117°43'611.4
2017-Sep-20 04:01N 32°33' W 117°39'611.7
2017-Sep-20 03:30N 32°27' W 117°37'612.5
2017-Sep-20 03:00N 32°22' W 117°35'815.8
2017-Sep-20 02:30N 32°14' W 117°32'915.8
2017-Sep-20 01:55N 32°05' W 117°29'615.2
2017-Sep-20 01:31N 31°59' W 117°26'815.3
2017-Sep-20 00:59N 31°52' W 117°22'715.3
2017-Sep-20 00:30N 31°45' W 117°19'815.1
2017-Sep-20 00:01N 31°38' W 117°17'815.1
2017-Sep-19 23:30N 31°31' W 117°14'815.3
2017-Sep-19 23:00N 31°23' W 117°12'815.5
2017-Sep-19 22:31N 31°16' W 117°09'815.4
2017-Sep-19 22:00N 31°08' W 117°06'1115.6
2017-Sep-19 21:18N 30°58' W 117°02'3315.6
2017-Sep-19 19:11N 30°27' W 116°50'315.6
2017-Sep-19 19:00N 30°24' W 116°49'1315.6
2017-Sep-19 18:11N 30°12' W 116°44'9615.8
2017-Sep-19 12:09N 28°42' W 116°09'216.3
2017-Sep-19 12:00N 28°40' W 116°08'4316.1
2017-Sep-19 09:21N 27°60' W 115°49'516.1
2017-Sep-19 09:00N 27°55' W 115°46'5016.1
2017-Sep-19 05:54N 27°16' W 115°11'1515.9
2017-Sep-19 04:57N 27°04' W 115°01'5115.9
2017-Sep-19 01:44N 26°24' W 114°25'416.0
2017-Sep-19 01:30N 26°21' W 114°22'815.9
2017-Sep-19 01:00N 26°15' W 114°17'915.7
2017-Sep-19 00:27N 26°08' W 114°11'816.1
2017-Sep-18 23:59N 26°02' W 114°06'45316.8
2017-Sep-17 21:00N 20°36' W 108°24'   190 / 241013.0 5.4 29.026.327.0
Track history (hours):
 
Tides and Currents Weather Stations Pressure Air Temp Water Temp Dewpoint Dewpoint Depression Visibility Wind Speed Wind Dir Waves Ship Positions

Conti Salome

Last reported at 2017-Sep-21 07:34 UTC. Time now 2017-Sep-21 12:14 UTC.
Position N 34°09' W 119°12'.

Length 203 m; beam 28 m; draft 11 m.

Type: Cargo ship. MMSI: 636017730.

Date/timePositionNaut miles runAvg speedWind from/ knotsBaromVisibWave heightAir tempDewpointWater temp
2017-Sep-21 07:34N 34°09' W 119°12'0 0.0
2017-Sep-21 03:50N 34°09' W 119°12'0 0.0
2017-Sep-21 03:26N 34°09' W 119°12'0 0.0
2017-Sep-21 02:56N 34°09' W 119°12'0 0.0
2017-Sep-21 02:20N 34°09' W 119°12'0 0.0
2017-Sep-21 01:55N 34°09' W 119°12'0 0.0
2017-Sep-20 21:51N 34°09' W 119°12'0 0.0
2017-Sep-20 21:30N 34°09' W 119°12'0 0.0
2017-Sep-20 20:53N 34°09' W 119°12'0 0.0
2017-Sep-20 19:20N 34°09' W 119°12'0 0.0
2017-Sep-20 13:59N 34°09' W 119°12'2 4.0
2017-Sep-20 13:30N 34°07' W 119°14'1 2.0
2017-Sep-20 12:58N 34°07' W 119°15'3 6.0
2017-Sep-20 12:30N 34°04' W 119°15'5 8.6
2017-Sep-20 11:59N 33°59' W 119°13'715.4
2017-Sep-20 11:30N 33°53' W 119°08'815.0
2017-Sep-20 11:00N 33°48' W 119°03'714.6
2017-Sep-20 10:30N 33°42' W 118°57'714.9
2017-Sep-20 10:00N 33°36' W 118°52'714.9
2017-Sep-20 09:30N 33°30' W 118°46'815.1
2017-Sep-20 09:01N 33°24' W 118°41'814.9
2017-Sep-20 08:29N 33°18' W 118°35'815.0
2017-Sep-20 07:58N 33°12' W 118°30'715.1
2017-Sep-20 07:30N 33°07' W 118°23'815.0
2017-Sep-20 07:00N 33°02' W 118°17'715.0
2017-Sep-20 06:30N 32°57' W 118°10'714.9
2017-Sep-20 06:00N 32°52' W 118°04'714.9
2017-Sep-20 05:30N 32°47' W 117°57'714.8
2017-Sep-20 05:01N 32°42' W 117°50'815.4
2017-Sep-20 04:31N 32°38' W 117°43'611.4
2017-Sep-20 04:01N 32°33' W 117°39'611.7
2017-Sep-20 03:30N 32°27' W 117°37'612.5
2017-Sep-20 03:00N 32°22' W 117°35'815.8
2017-Sep-20 02:30N 32°14' W 117°32'915.8
2017-Sep-20 01:55N 32°05' W 117°29'615.2
2017-Sep-20 01:31N 31°59' W 117°26'815.3
2017-Sep-20 00:59N 31°52' W 117°22'715.3
2017-Sep-20 00:30N 31°45' W 117°19'815.1
2017-Sep-20 00:01N 31°38' W 117°17'815.1
2017-Sep-19 23:30N 31°31' W 117°14'815.3
2017-Sep-19 23:00N 31°23' W 117°12'815.5
2017-Sep-19 22:31N 31°16' W 117°09'815.4
2017-Sep-19 22:00N 31°08' W 117°06'1115.6
2017-Sep-19 21:18N 30°58' W 117°02'3315.6
2017-Sep-19 19:11N 30°27' W 116°50'315.6
2017-Sep-19 19:00N 30°24' W 116°49'1315.6
2017-Sep-19 18:11N 30°12' W 116°44'9615.8
2017-Sep-19 12:09N 28°42' W 116°09'216.3
2017-Sep-19 12:00N 28°40' W 116°08'4316.1
2017-Sep-19 09:21N 27°60' W 115°49'516.1
2017-Sep-19 09:00N 27°55' W 115°46'5016.1
2017-Sep-19 05:54N 27°16' W 115°11'1515.9
2017-Sep-19 04:57N 27°04' W 115°01'5115.9
2017-Sep-19 01:44N 26°24' W 114°25'416.0
2017-Sep-19 01:30N 26°21' W 114°22'815.9
2017-Sep-19 01:00N 26°15' W 114°17'915.7
2017-Sep-19 00:27N 26°08' W 114°11'816.1
2017-Sep-18 23:59N 26°02' W 114°06'45316.8
2017-Sep-17 21:00N 20°36' W 108°24'   190 / 241013.0 5.4 29.026.327.0

Dump ship's entire track history